Time;durP1;ratioP1;P1;durP2;ratioP2;P2;SDS_P1;SDS_P2;PMS_P1;PMS_P2;Temp;Humidity;BMP_temperature;BMP_pressure;BME280_temperature;BME280_humidity;BME280_pressure;Samples;Min_cycle;Max_cycle;Signal;HPM_P1;HPM_P2
2023/01/19 00:01:32;;;;;;;43.20;28.60;;;;;;;2.56;89.21;99211.45;83860;1263;3011481;-77
2023/01/19 00:04:11;;;;;;;44.20;28.30;;;;;;;2.57;89.45;99223.99;82591;1255;3025709;-76
2023/01/19 00:06:46;;;;;;;44.20;29.50;;;;;;;2.57;89.26;99241.89;82510;1258;3027066;-76
2023/01/19 00:09:22;;;;;;;40.50;27.40;;;;;;;2.56;89.39;99255.17;83364;1259;3011923;-75
2023/01/19 00:11:58;;;;;;;40.70;25.80;;;;;;;2.57;89.60;99266.36;83926;1277;3011906;-77
2023/01/19 00:14:32;;;;;;;39.20;27.00;;;;;;;2.58;89.50;99260.98;82454;1253;3025703;-77
2023/01/19 00:17:03;;;;;;;44.30;29.10;;;;;;;2.60;89.33;99267.32;83933;1254;3013642;-77
2023/01/19 00:19:37;;;;;;;43.40;28.80;;;;;;;2.58;89.47;99269.93;82559;1257;3025243;-75
2023/01/19 00:22:12;;;;;;;41.40;26.60;;;;;;;2.57;89.47;99278.20;83781;1256;3013164;-74
2023/01/19 00:24:49;;;;;;;42.80;27.00;;;;;;;2.57;89.51;99272.70;82611;1256;3026276;-76
2023/01/19 00:27:24;;;;;;;42.10;27.10;;;;;;;2.58;89.33;99271.48;82517;1256;3026414;-76
2023/01/19 00:30:00;;;;;;;43.20;28.00;;;;;;;2.57;89.28;99282.36;83438;1255;3011561;-76
2023/01/19 00:32:33;;;;;;;43.40;28.20;;;;;;;2.58;89.30;99285.09;83353;1277;3011491;-76
2023/01/19 00:35:08;;;;;;;45.70;29.30;;;;;;;2.59;89.37;99287.30;83917;1253;3011373;-77
2023/01/19 00:37:44;;;;;;;41.60;26.40;;;;;;;2.60;89.48;99289.02;82598;1255;3029977;-75
2023/01/19 00:40:20;;;;;;;46.60;31.00;;;;;;;2.59;89.20;99295.73;82587;1255;3025765;-78
2023/01/19 00:42:53;;;;;;;46.10;29.50;;;;;;;2.61;89.42;99299.30;83885;1258;3011530;-77
2023/01/19 00:45:28;;;;;;;43.90;29.60;;;;;;;2.61;89.30;99312.21;82597;1254;3025911;-75
2023/01/19 00:48:01;;;;;;;44.80;28.30;;;;;;;2.61;89.46;99318.94;83402;1259;3013630;-75
2023/01/19 00:50:32;;;;;;;42.90;28.00;;;;;;;2.60;89.25;99316.20;83968;1259;3011464;-76
2023/01/19 00:53:04;;;;;;;43.90;29.00;;;;;;;2.58;89.20;99317.30;82617;1277;3026387;-77
2023/01/19 00:55:36;;;;;;;41.80;27.70;;;;;;;2.59;89.32;99318.98;83817;1267;3011531;-74
2023/01/19 00:58:11;;;;;;;44.50;28.70;;;;;;;2.58;89.38;99319.85;82581;1254;3027324;-75
2023/01/19 01:00:42;;;;;;;38.70;25.90;;;;;;;2.58;89.33;99313.50;83941;1253;3011530;-75
2023/01/19 01:03:17;;;;;;;41.20;26.50;;;;;;;2.55;89.30;99304.95;82578;1258;3025331;-76
2023/01/19 01:05:51;;;;;;;42.00;27.20;;;;;;;2.55;89.19;99302.18;82449;1262;3025495;-76
2023/01/19 01:08:25;;;;;;;41.30;27.80;;;;;;;2.57;89.41;99302.16;83907;1259;3013158;-75
2023/01/19 01:10:58;;;;;;;43.80;29.10;;;;;;;2.56;89.22;99304.23;82593;1276;3025444;-75
2023/01/19 01:13:29;;;;;;;46.00;29.40;;;;;;;2.57;89.38;99306.95;83965;1256;3011543;-75
2023/01/19 01:16:03;;;;;;;49.40;30.10;;;;;;;2.56;89.36;99304.92;82623;1256;3025128;-75
2023/01/19 01:18:34;;;;;;;43.40;28.00;;;;;;;2.54;89.38;99299.64;83772;1260;3012925;-75
2023/01/19 01:21:09;;;;;;;44.80;29.20;;;;;;;2.53;89.34;99298.97;82639;1255;3024612;-75
2023/01/19 01:23:44;;;;;;;48.80;31.60;;;;;;;2.52;89.30;99298.64;82631;1256;3025794;-74
2023/01/19 01:26:18;;;;;;;46.80;29.40;;;;;;;2.50;89.39;99294.58;83447;1253;3011401;-76
2023/01/19 01:28:51;;;;;;;43.80;27.00;;;;;;;2.48;89.65;99291.34;83924;1256;3011470;-77
2023/01/19 01:31:24;;;;;;;41.10;26.60;;;;;;;2.50;89.59;99288.01;82643;1254;3026112;-75
2023/01/19 01:33:55;;;;;;;42.30;28.70;;;;;;;2.53;89.53;99284.85;83939;1266;3013570;-75
2023/01/19 01:36:32;;;;;;;39.30;27.90;;;;;;;2.55;89.55;99285.48;82646;1253;3027201;-76
2023/01/19 01:39:07;;;;;;;43.40;27.90;;;;;;;2.55;89.57;99285.67;83392;1254;3011606;-76
2023/01/19 01:41:38;;;;;;;45.70;29.40;;;;;;;2.51;89.26;99284.55;83949;1257;3011502;-77
2023/01/19 01:44:48;;;;;;;43.20;27.40;;;;;;;2.46;89.17;99289.48;82447;1264;3026411;-75
2023/01/19 01:47:26;;;;;;;;;;;;;;;2.42;89.16;99287.69;82612;1259;3026388;-75
2023/01/19 01:50:06;;;;;;;38.40;25.70;;;;;;;2.38;89.40;99279.70;82637;1259;3025735;-76
2023/01/19 01:52:40;;;;;;;44.00;28.90;;;;;;;2.41;89.64;99278.07;82538;1259;3026394;-75
2023/01/19 01:55:16;;;;;;;43.50;28.50;;;;;;;2.46;89.98;99280.20;83233;1256;3011556;-76
2023/01/19 01:57:53;;;;;;;42.80;28.80;;;;;;;2.51;89.86;99281.45;83354;1258;3011619;-76
2023/01/19 02:00:25;;;;;;;45.70;29.90;;;;;;;2.53;89.93;99277.64;82617;1277;3028784;-75
2023/01/19 02:02:59;;;;;;;45.90;28.60;;;;;;;2.50;89.62;99277.88;83912;1253;3011506;-75
2023/01/19 02:05:34;;;;;;;39.60;27.60;;;;;;;2.47;89.44;99278.79;82513;1253;3026405;-77
2023/01/19 02:13:50;;;;;;;46.40;30.40;;;;;;;2.42;89.32;99271.17;82474;1254;3026090;-75
2023/01/19 02:16:22;;;;;;;45.40;28.00;;;;;;;2.35;89.26;99269.59;83834;1262;3011500;-77
2023/01/19 02:18:57;;;;;;;47.40;29.40;;;;;;;2.31;89.16;99270.21;82519;1277;3025932;-76
2023/01/19 02:21:35;;;;;;;45.30;29.20;;;;;;;2.28;89.25;99274.05;83345;1261;3011412;-74
2023/01/19 02:24:11;;;;;;;48.10;30.60;;;;;;;2.25;89.19;99270.85;82513;1255;3027364;-75
2023/01/19 02:26:45;;;;;;;47.80;30.30;;;;;;;2.26;89.34;99271.52;82508;1256;3026517;-76
2023/01/19 02:29:18;;;;;;;48.20;28.60;;;;;;;2.26;89.38;99270.99;83786;1261;3011629;-77
2023/01/19 02:31:51;;;;;;;44.30;27.00;;;;;;;2.23;89.33;99277.27;82496;1259;3025787;-76
2023/01/19 02:34:27;;;;;;;43.40;28.00;;;;;;;2.21;89.03;99281.27;83290;1270;3011486;-75
2023/01/19 02:37:00;;;;;;;47.20;30.10;;;;;;;2.22;89.38;99276.27;83842;1256;3011578;-75
2023/01/19 02:39:36;;;;;;;47.50;30.20;;;;;;;2.22;89.19;99280.04;82453;1261;3027039;-75
2023/01/19 02:42:12;;;;;;;47.40;28.70;;;;;;;2.22;89.29;99279.69;83235;1256;3011463;-75
2023/01/19 02:44:48;;;;;;;44.30;28.20;;;;;;;2.20;89.21;99278.38;83255;1272;3012029;-75
2023/01/19 02:47:21;;;;;;;41.80;26.90;;;;;;;2.16;89.17;99278.80;82516;1262;3026352;-75
2023/01/19 02:50:00;;;;;;;45.10;28.50;;;;;;;2.15;89.18;99286.37;83831;1259;3011532;-77
2023/01/19 02:52:38;;;;;;;46.10;29.20;;;;;;;2.20;89.81;99286.44;82500;1259;3025701;-75
2023/01/19 02:55:12;;;;;;;45.70;29.20;;;;;;;2.25;89.84;99287.20;82501;1259;3027284;-77
2023/01/19 02:57:55;;;;;;;44.80;26.40;;;;;;;2.24;89.70;99292.20;83296;1266;3011443;-78
2023/01/19 03:00:36;;;;;;;43.80;27.90;;;;;;;2.23;89.53;99295.52;82473;1278;3025531;-76
2023/01/19 03:03:18;;;;;;;;;;;;;;;2.22;89.44;99303.61;82466;1262;3025234;-77
2023/01/19 03:05:57;;;;;;;50.30;30.20;;;;;;;2.20;89.65;99301.06;82530;1278;3025960;-75
2023/01/19 03:08:39;;;;;;;47.40;29.50;;;;;;;2.21;89.81;99300.36;82481;1255;3026296;-76
2023/01/19 03:11:12;;;;;;;46.70;29.60;;;;;;;2.21;89.70;99290.03;82571;1258;3026623;-75
2023/01/19 03:13:48;;;;;;;45.90;27.90;;;;;;;2.21;89.84;99284.02;83850;1255;3011276;-75
2023/01/19 03:16:23;;;;;;;44.30;26.50;;;;;;;2.24;89.95;99280.16;82546;1256;3025271;-75
2023/01/19 03:18:59;;;;;;;41.30;27.40;;;;;;;2.26;89.65;99277.02;83299;1256;3011548;-75
2023/01/19 03:21:33;;;;;;;41.20;26.10;;;;;;;2.28;89.58;99281.46;82509;1257;3025657;-75
2023/01/19 03:24:33;;;;;;;47.40;29.80;;;;;;;2.31;89.39;99281.38;83257;1256;3011625;-75
2023/01/19 03:27:08;;;;;;;47.60;30.00;;;;;;;2.31;89.49;99285.86;82527;1254;3025475;-76
2023/01/19 03:29:47;;;;;;;48.10;30.10;;;;;;;2.29;89.19;99290.21;83252;1256;3013116;-77
2023/01/19 03:32:21;;;;;;;46.00;28.50;;;;;;;2.26;89.31;99293.05;82493;1254;3025793;-77
2023/01/19 03:34:57;;;;;;;43.80;27.40;;;;;;;2.25;89.32;99294.08;83824;1264;3013208;-77
2023/01/19 03:37:29;;;;;;;44.50;28.60;;;;;;;2.25;89.15;99301.15;82499;1258;3026988;-77
2023/01/19 03:40:00;;;;;;;45.10;28.70;;;;;;;2.23;89.25;99305.14;83834;1255;3011558;-76
2023/01/19 03:42:35;;;;;;;48.20;31.10;;;;;;;2.19;89.01;99308.33;82501;1259;3027458;-76
2023/01/19 03:45:11;;;;;;;48.70;29.00;;;;;;;2.15;88.94;99305.82;82534;1259;3025979;-75
2023/01/19 03:47:46;;;;;;;46.60;28.60;;;;;;;2.15;89.27;99310.96;82407;1259;3026782;-74
2023/01/19 03:50:24;;;;;;;44.60;28.00;;;;;;;2.19;89.41;99313.64;83220;1271;3011361;-77
2023/01/19 03:53:06;;;;;;;47.70;29.80;;;;;;;2.16;89.07;99317.16;82458;1259;3026823;-77
2023/01/19 03:55:41;;;;;;;48.70;31.00;;;;;;;2.12;89.04;99322.41;82528;1259;3024994;-78
2023/01/19 03:58:14;;;;;;;51.20;31.30;;;;;;;2.10;89.09;99325.38;82447;1261;3025923;-76
2023/01/19 04:00:46;;;;;;;50.20;29.70;;;;;;;2.07;89.28;99325.43;83828;1259;3011593;-77
2023/01/19 04:03:19;;;;;;;45.80;28.20;;;;;;;2.09;89.56;99329.36;82521;1258;3026383;-77
2023/01/19 04:05:51;;;;;;;47.80;28.50;;;;;;;2.13;89.72;99331.66;83824;1256;3011275;-75
2023/01/19 04:08:23;;;;;;;50.20;31.80;;;;;;;2.17;89.88;99339.84;82496;1256;3026367;-75
2023/01/19 04:10:54;;;;;;;49.90;31.30;;;;;;;2.25;90.46;99345.18;83787;1262;3011602;-76
2023/01/19 04:13:28;;;;;;;54.00;32.20;;;;;;;2.31;90.14;99348.85;82536;1259;3024748;-76
2023/01/19 04:16:02;;;;;;;50.10;30.10;;;;;;;2.25;89.69;99347.77;83860;1255;3011503;-78
2023/01/19 04:18:34;;;;;;;47.80;29.60;;;;;;;2.26;89.78;99346.37;82498;1259;3026167;-77
2023/01/19 04:21:06;;;;;;;53.70;31.90;;;;;;;2.31;89.93;99354.01;83816;1256;3011562;-74
2023/01/19 04:23:43;;;;;;;50.70;31.20;;;;;;;2.35;89.91;99355.13;82530;1259;3025807;-75
2023/01/19 04:26:13;;;;;;;50.40;30.70;;;;;;;2.38;89.96;99355.27;83848;1269;3011505;-76
2023/01/19 04:28:46;;;;;;;52.10;31.20;;;;;;;2.37;89.83;99352.88;82492;1260;3025676;-77
2023/01/19 04:31:18;;;;;;;48.10;30.00;;;;;;;2.30;89.30;99356.42;83794;1257;3013456;-75
2023/01/19 04:33:51;;;;;;;46.50;28.10;;;;;;;2.28;89.53;99361.65;82305;1256;3025607;-75
2023/01/19 04:36:22;;;;;;;48.10;29.70;;;;;;;2.29;89.51;99366.27;83858;1268;3011526;-75
2023/01/19 04:38:56;;;;;;;51.00;31.20;;;;;;;2.29;89.61;99368.17;82504;1259;3026345;-75
2023/01/19 04:41:33;;;;;;;47.80;29.90;;;;;;;2.31;89.58;99372.08;83312;1256;3013367;-76
2023/01/19 04:44:11;;;;;;;46.60;28.60;;;;;;;2.31;89.75;99371.39;82524;1254;3026308;-77
2023/01/19 04:46:46;;;;;;;44.90;28.20;;;;;;;2.32;89.73;99373.43;82423;1266;3026673;-76
2023/01/19 04:49:19;;;;;;;45.50;29.20;;;;;;;2.35;89.87;99379.05;82510;1257;3025946;-74
2023/01/19 04:51:53;;;;;;;49.80;29.90;;;;;;;2.38;89.98;99375.40;83816;1258;3011512;-74
2023/01/19 04:54:25;;;;;;;48.90;30.80;;;;;;;2.39;89.92;99381.05;82441;1262;3026045;-76
2023/01/19 04:56:59;;;;;;;51.00;30.90;;;;;;;2.39;89.74;99386.03;83807;1256;3011461;-75
2023/01/19 04:59:32;;;;;;;50.80;29.50;;;;;;;2.40;89.72;99386.54;82436;1278;3027230;-75
2023/01/19 05:02:04;;;;;;;50.60;30.30;;;;;;;2.39;89.83;99389.83;83777;1258;3011755;-75
2023/01/19 05:04:36;;;;;;;45.70;28.60;;;;;;;2.40;89.71;99390.48;82461;1262;3025588;-76
2023/01/19 05:07:07;;;;;;;48.00;29.80;;;;;;;2.40;89.75;99389.45;83830;1268;3011424;-75
2023/01/19 05:09:40;;;;;;;49.30;29.80;;;;;;;2.43;89.83;99396.80;82539;1258;3025877;-75
2023/01/19 05:12:11;;;;;;;49.80;29.10;;;;;;;2.42;89.96;99399.57;83818;1275;3011523;-75
2023/01/19 05:14:43;;;;;;;47.40;28.60;;;;;;;2.41;89.98;99396.15;82559;1268;3026060;-76
2023/01/19 05:17:14;;;;;;;44.20;27.70;;;;;;;2.41;89.89;99402.17;83877;1256;3011584;-76
2023/01/19 05:19:47;;;;;;;46.90;29.10;;;;;;;2.42;90.11;99409.73;82530;1258;3026871;-74
2023/01/19 05:22:18;;;;;;;46.80;29.90;;;;;;;2.43;89.99;99409.36;83865;1255;3013017;-75
2023/01/19 05:24:53;;;;;;;50.30;30.60;;;;;;;2.46;90.22;99394.32;82536;1258;3025555;-76
2023/01/19 05:27:26;;;;;;;48.60;28.70;;;;;;;2.50;90.34;99397.84;83292;1258;3011515;-77
2023/01/19 05:29:58;;;;;;;50.20;29.20;;;;;;;2.52;90.12;99393.52;83828;1257;3011780;-76
2023/01/19 05:32:31;;;;;;;49.10;30.20;;;;;;;2.53;90.09;99393.83;82476;1262;3027152;-75
2023/01/19 05:35:04;;;;;;;50.10;30.90;;;;;;;2.55;90.08;99399.11;83752;1262;3011568;-75
2023/01/19 05:37:38;;;;;;;50.80;31.80;;;;;;;2.57;90.28;99402.71;82516;1269;3028050;-74
2023/01/19 05:40:16;;;;;;;45.10;27.70;;;;;;;2.56;89.99;99415.46;83283;1256;3011613;-74
2023/01/19 05:42:52;;;;;;;45.20;28.20;;;;;;;2.51;89.66;99419.52;82476;1259;3026088;-76
2023/01/19 05:45:26;;;;;;;44.70;28.90;;;;;;;2.51;90.02;99425.55;83820;1256;3011596;-75
2023/01/19 05:47:59;;;;;;;45.00;30.00;;;;;;;2.58;90.36;99424.88;82467;1272;3025620;-75
2023/01/19 05:50:33;;;;;;;47.80;30.50;;;;;;;2.65;90.22;99420.44;83856;1258;3013004;-75
2023/01/19 05:53:06;;;;;;;44.30;28.10;;;;;;;2.66;90.14;99416.63;82499;1278;3025574;-73
2023/01/19 05:55:37;;;;;;;41.70;26.80;;;;;;;2.71;90.47;99421.00;83767;1262;3011448;-76
2023/01/19 05:58:12;;;;;;;43.00;28.80;;;;;;;2.77;90.44;99426.91;82484;1259;3025996;-74
2023/01/19 06:00:46;;;;;;;42.70;28.90;;;;;;;2.78;89.83;99427.75;83303;1259;3011799;-76
2023/01/19 06:03:17;;;;;;;45.80;29.20;;;;;;;2.80;90.15;99430.63;83817;1258;3011582;-77
2023/01/19 06:05:50;;;;;;;47.90;30.10;;;;;;;2.83;90.13;99435.73;82512;1278;3026343;-76
2023/01/19 06:08:22;;;;;;;43.90;26.80;;;;;;;2.83;89.89;99443.31;83794;1255;3011495;-76
2023/01/19 06:10:55;;;;;;;44.20;27.60;;;;;;;2.84;90.02;99444.83;82501;1254;3026198;-77
2023/01/19 06:13:28;;;;;;;38.70;26.00;;;;;;;2.84;89.59;99447.08;83787;1259;3011700;-77
2023/01/19 06:16:01;;;;;;;41.70;28.70;;;;;;;2.80;89.35;99442.16;82499;1258;3025328;-77
2023/01/19 06:18:31;;;;;;;42.20;27.90;;;;;;;2.83;89.70;99447.96;83811;1259;3011554;-75
2023/01/19 06:21:06;;;;;;;39.60;26.20;;;;;;;2.80;89.40;99450.42;82488;1258;3025717;-74
2023/01/19 06:23:39;;;;;;;41.50;26.30;;;;;;;2.81;89.50;99457.98;83235;1259;3012000;-74
2023/01/19 06:26:13;;;;;;;39.90;25.90;;;;;;;2.79;89.28;99473.01;83850;1258;3011744;-76
2023/01/19 06:28:48;;;;;;;41.70;27.20;;;;;;;2.80;89.26;99485.39;82520;1259;3026638;-75
2023/01/19 06:31:24;;;;;;;39.90;26.10;;;;;;;2.80;89.33;99489.88;83812;1261;3011536;-75
2023/01/19 06:33:56;;;;;;;40.30;24.80;;;;;;;2.77;89.22;99497.34;82445;1258;3026457;-75
2023/01/19 06:36:29;;;;;;;38.00;24.50;;;;;;;2.77;89.23;99505.27;83804;1260;3011547;-76
2023/01/19 06:39:02;;;;;;;37.60;24.40;;;;;;;2.74;89.03;99507.05;82487;1267;3025635;-76
2023/01/19 06:41:35;;;;;;;40.50;26.30;;;;;;;2.75;89.52;99511.15;83839;1258;3012845;-75
2023/01/19 06:44:10;;;;;;;40.20;26.30;;;;;;;2.82;89.77;99516.53;82492;1259;3025626;-74
2023/01/19 06:46:44;;;;;;;40.80;24.80;;;;;;;2.83;89.53;99513.58;83196;1262;3011630;-74
2023/01/19 06:49:15;;;;;;;37.10;24.20;;;;;;;2.83;89.45;99518.21;83839;1270;3013166;-75
2023/01/19 06:51:51;;;;;;;37.80;23.90;;;;;;;2.83;89.28;99528.22;82525;1260;3026340;-74
2023/01/19 06:54:26;;;;;;;33.20;23.30;;;;;;;2.88;89.48;99531.75;82496;1267;3024575;-74
2023/01/19 06:56:58;;;;;;;36.50;24.20;;;;;;;2.88;89.18;99530.54;83831;1258;3011741;-72
2023/01/19 06:59:33;;;;;;;33.80;22.90;;;;;;;2.89;89.20;99526.73;82461;1262;3025987;-74
2023/01/19 07:02:18;;;;;;;33.60;21.40;;;;;;;2.88;89.03;99528.30;82503;1260;3025747;-73
2023/01/19 07:05:01;;;;;;;32.60;21.30;;;;;;;2.89;89.25;99525.52;82464;1257;3027456;-74
2023/01/19 07:07:34;;;;;;;30.50;21.20;;;;;;;2.89;89.01;99520.16;82505;1268;3025305;-73
2023/01/19 07:10:10;;;;;;;33.50;22.30;;;;;;;2.90;88.85;99519.13;83814;1263;3011913;-74
2023/01/19 07:12:45;;;;;;;30.80;20.50;;;;;;;2.86;88.78;99515.77;82504;1259;3025780;-74
2023/01/19 07:15:21;;;;;;;31.60;21.50;;;;;;;2.87;88.72;99511.61;82536;1259;3026368;-76
2023/01/19 07:17:58;;;;;;;30.30;21.30;;;;;;;2.84;88.73;99507.02;83207;1262;3013129;-77
2023/01/19 07:20:33;;;;;;;31.50;21.90;;;;;;;2.85;88.68;99504.56;83258;1260;3011981;-76
2023/01/19 07:23:08;;;;;;;32.10;22.30;;;;;;;2.90;89.24;99501.20;83273;1262;3011463;-76
2023/01/19 07:25:41;;;;;;;31.80;20.50;;;;;;;2.92;89.05;99505.81;83243;1258;3011724;-74
2023/01/19 07:28:14;;;;;;;30.70;19.50;;;;;;;2.94;89.02;99515.60;83836;1268;3011488;-74
2023/01/19 07:30:48;;;;;;;30.70;20.40;;;;;;;2.99;88.75;99513.77;82480;1260;3026032;-72
2023/01/19 07:33:21;;;;;;;27.80;20.60;;;;;;;3.01;88.97;99509.23;83846;1263;3013067;-73
2023/01/19 07:35:57;;;;;;;30.70;20.60;;;;;;;3.01;88.80;99503.05;82480;1262;3025250;-74
2023/01/19 07:38:31;;;;;;;31.60;20.10;;;;;;;2.97;88.26;99501.05;82501;1278;3025582;-70
2023/01/19 07:41:09;;;;;;;29.20;19.70;;;;;;;2.99;88.55;99507.22;83534;1266;3012948;-72
2023/01/19 07:43:45;;;;;;;29.20;19.90;;;;;;;3.00;88.54;99508.74;82556;1260;3025828;-73
2023/01/19 07:46:17;;;;;;;30.80;20.60;;;;;;;3.00;88.29;99508.59;82529;1260;3026116;-72
2023/01/19 07:48:54;;;;;;;28.70;20.80;;;;;;;2.99;88.09;99509.45;83990;1260;3011554;-75
2023/01/19 07:51:27;;;;;;;31.30;21.60;;;;;;;3.02;88.32;99516.29;82595;1261;3025826;-74
2023/01/19 07:54:00;;;;;;;31.30;21.10;;;;;;;3.03;88.35;99522.46;83861;1260;3011975;-74
2023/01/19 07:56:33;;;;;;;32.70;21.40;;;;;;;3.03;88.54;99526.43;82488;1261;3025438;-74
2023/01/19 07:59:10;;;;;;;30.60;20.20;;;;;;;3.03;88.23;99537.63;83766;1263;3011493;-73
2023/01/19 08:01:43;;;;;;;30.30;20.80;;;;;;;3.05;88.39;99552.24;82487;1260;3027575;-71
2023/01/19 08:04:18;;;;;;;30.20;21.00;;;;;;;3.06;88.47;99560.83;83828;1260;3011586;-73
2023/01/19 08:06:54;;;;;;;33.40;22.10;;;;;;;3.07;88.48;99560.98;82409;1257;3025553;-74
2023/01/19 08:09:34;;;;;;;31.30;19.80;;;;;;;3.06;87.91;99558.59;82529;1268;3025976;-73
2023/01/19 08:12:07;;;;;;;26.40;18.80;;;;;;;3.03;87.90;99554.00;82528;1258;3026322;-74
2023/01/19 08:14:40;;;;;;;28.10;18.70;;;;;;;3.07;88.27;99547.54;83838;1272;3011492;-74
2023/01/19 08:17:14;;;;;;;27.30;19.30;;;;;;;3.14;88.51;99548.77;82484;1260;3026324;-74
2023/01/19 08:19:50;;;;;;;27.80;19.30;;;;;;;3.20;88.58;99543.13;83860;1255;3011438;-75
2023/01/19 08:22:25;;;;;;;27.10;19.30;;;;;;;3.23;88.46;99536.00;82536;1255;3026421;-76
2023/01/19 08:25:02;;;;;;;28.30;19.60;;;;;;;3.23;88.22;99531.19;82481;1262;3025889;-76
2023/01/19 08:27:35;;;;;;;30.00;19.20;;;;;;;3.21;87.99;99528.64;82396;1269;3025652;-76
2023/01/19 08:30:11;;;;;;;29.40;19.50;;;;;;;3.23;87.78;99528.59;83827;1259;3011503;-75
2023/01/19 08:32:46;;;;;;;28.40;19.60;;;;;;;3.24;87.67;99526.30;82540;1269;3026388;-75
2023/01/19 08:35:19;;;;;;;28.30;19.80;;;;;;;3.26;87.58;99520.25;82523;1270;3026057;-74
2023/01/19 08:37:53;;;;;;;29.50;20.70;;;;;;;3.23;87.47;99518.77;83840;1260;3011424;-76
2023/01/19 08:40:26;;;;;;;31.00;19.60;;;;;;;3.23;87.58;99520.49;82543;1261;3026012;-75
2023/01/19 08:43:03;;;;;;;26.60;18.80;;;;;;;3.21;87.45;99525.89;83800;1259;3011497;-76
2023/01/19 08:45:36;;;;;;;31.40;19.20;;;;;;;3.22;87.45;99526.22;82511;1265;3026998;-75
2023/01/19 08:48:07;;;;;;;29.60;19.20;;;;;;;3.24;87.45;99528.21;83837;1265;3011383;-75
2023/01/19 08:50:39;;;;;;;28.80;19.50;;;;;;;3.25;87.50;99523.02;82514;1262;3025547;-76
2023/01/19 08:53:10;;;;;;;32.40;21.50;;;;;;;3.25;87.48;99523.55;83810;1278;3013177;-76
2023/01/19 08:55:42;;;;;;;30.90;20.70;;;;;;;3.25;87.53;99530.29;82478;1262;3025402;-74
2023/01/19 08:58:15;;;;;;;28.40;19.80;;;;;;;3.24;87.24;99537.02;83806;1260;3011594;-74
2023/01/19 09:00:47;;;;;;;28.00;18.90;;;;;;;3.24;86.94;99543.92;82551;1278;3026383;-75
2023/01/19 09:03:19;;;;;;;27.40;18.80;;;;;;;3.26;87.26;99543.19;83817;1278;3011460;-75
2023/01/19 09:05:55;;;;;;;29.10;20.40;;;;;;;3.29;87.18;99549.84;82510;1268;3025828;-73
2023/01/19 09:08:29;;;;;;;29.10;20.00;;;;;;;3.28;86.93;99558.30;82489;1256;3025164;-77
2023/01/19 09:11:11;;;;;;;26.80;18.20;;;;;;;3.26;86.91;99558.52;83274;1264;3011362;-74
2023/01/19 09:13:44;;;;;;;24.90;17.00;;;;;;;3.25;86.96;99555.27;82559;1254;3027227;-74
2023/01/19 09:16:17;;;;;;;24.90;17.90;;;;;;;3.25;86.66;99557.67;83887;1266;3013273;-74
2023/01/19 09:18:53;;;;;;;28.00;19.70;;;;;;;3.24;86.58;99558.74;82554;1267;3026360;-73
2023/01/19 09:21:28;;;;;;;30.50;21.10;;;;;;;3.17;86.33;99558.54;82521;1267;3026258;-71
2023/01/19 09:24:11;;;;;;;32.70;22.40;;;;;;;3.17;86.89;99551.83;82459;1254;3025889;-73
2023/01/19 09:26:45;;;;;;;31.70;20.70;;;;;;;3.20;87.17;99553.66;82347;1271;3027220;-73
2023/01/19 09:29:21;;;;;;;28.70;19.00;;;;;;;3.24;87.04;99562.17;83849;1260;3013075;-73
2023/01/19 09:31:58;;;;;;;29.40;20.10;;;;;;;3.25;86.76;99572.50;82551;1259;3026117;-74
2023/01/19 09:34:33;;;;;;;28.80;20.10;;;;;;;3.28;86.89;99571.40;82532;1270;3026078;-74
2023/01/19 09:37:10;;;;;;;30.60;19.90;;;;;;;3.28;86.32;99575.19;83306;1261;3011431;-75
2023/01/19 09:39:49;;;;;;;28.10;19.20;;;;;;;3.23;86.49;99570.82;82539;1267;3026831;-73
2023/01/19 09:42:29;;;;;;;27.80;18.60;;;;;;;3.24;86.52;99565.98;83231;1269;3012710;-74
2023/01/19 09:45:06;;;;;;;23.50;16.50;;;;;;;3.23;86.53;99562.20;82533;1260;3026033;-76
2023/01/19 09:47:44;;;;;;;23.00;17.10;;;;;;;3.24;86.15;99563.73;82540;1267;3025839;-76
2023/01/19 09:50:24;;;;;;;27.50;18.10;;;;;;;3.25;86.46;99563.36;83276;1267;3011879;-75
2023/01/19 09:53:00;;;;;;;26.10;19.20;;;;;;;3.26;86.15;99566.10;82506;1259;3025588;-75
2023/01/19 09:55:33;;;;;;;27.20;18.80;;;;;;;3.24;86.21;99561.65;82553;1269;3025705;-75
2023/01/19 09:58:06;;;;;;;25.90;16.90;;;;;;;3.24;86.14;99560.11;83888;1269;3012900;-75
2023/01/19 10:00:39;;;;;;;22.80;15.50;;;;;;;3.24;86.05;99552.01;82409;1258;3027397;-74
2023/01/19 10:03:15;;;;;;;23.10;15.80;;;;;;;3.24;85.62;99553.56;83855;1267;3013322;-74
2023/01/19 10:05:51;;;;;;;22.50;16.50;;;;;;;3.21;85.21;99548.64;82354;1258;3025472;-73
2023/01/19 10:08:30;;;;;;;24.90;17.90;;;;;;;3.19;85.64;99549.89;83311;1270;3013139;-75
2023/01/19 10:11:03;;;;;;;27.60;18.50;;;;;;;3.17;85.59;99554.05;82560;1259;3024890;-74
2023/01/19 10:13:40;;;;;;;27.00;18.60;;;;;;;3.13;85.57;99555.70;83853;1254;3011468;-74
2023/01/19 10:16:32;;;;;;;31.00;19.30;;;;;;;3.09;85.61;99555.77;82528;1260;3024796;-72
2023/01/19 10:19:20;;;;;;;30.60;19.90;;;;;;;3.11;85.58;99548.34;82507;1260;3025887;-74
2023/01/19 10:21:58;;;;;;;30.30;20.20;;;;;;;3.09;85.72;99538.89;82403;1264;3026263;-76
2023/01/19 10:24:36;;;;;;;30.50;20.70;;;;;;;3.07;85.56;99537.36;82509;1261;3026638;-72
2023/01/19 10:27:16;;;;;;;28.60;19.50;;;;;;;3.07;85.72;99543.58;82531;1278;3026182;-74
2023/01/19 10:29:50;;;;;;;28.70;19.40;;;;;;;3.06;85.73;99544.98;82578;1254;3025721;-74
2023/01/19 10:32:24;;;;;;;32.60;21.10;;;;;;;3.05;85.58;99543.27;83849;1267;3011721;-74
2023/01/19 10:34:58;;;;;;;34.10;21.60;;;;;;;3.08;86.04;99536.14;82547;1261;3025625;-73
2023/01/19 10:37:32;;;;;;;30.00;21.10;;;;;;;3.13;86.14;99537.08;83860;1254;3011350;-74
2023/01/19 10:40:18;;;;;;;30.40;20.50;;;;;;;3.09;85.54;99536.13;82413;1260;3025504;-74
2023/01/19 10:42:51;;;;;;;28.90;20.60;;;;;;;3.07;85.67;99528.75;82420;1261;3026537;-73
2023/01/19 10:45:28;;;;;;;29.40;20.90;;;;;;;3.08;85.42;99525.12;83846;1269;3012891;-74
2023/01/19 10:48:08;;;;;;;32.70;22.60;;;;;;;3.07;85.69;99523.95;82557;1259;3025139;-75
2023/01/19 10:50:40;;;;;;;31.40;21.60;;;;;;;3.07;85.64;99523.09;82542;1254;3025764;-75
2023/01/19 10:53:21;;;;;;;33.90;21.10;;;;;;;3.04;85.69;99526.05;83869;1254;3011449;-75
2023/01/19 10:56:16;;;;;;;29.50;19.90;;;;;;;3.01;86.01;99523.39;82566;1254;3025069;-73
2023/01/19 10:58:53;;;;;;;28.20;20.40;;;;;;;3.01;85.80;99523.38;82545;1260;3025969;-74
2023/01/19 11:01:34;;;;;;;29.50;19.20;;;;;;;3.07;86.08;99528.95;83314;1254;3011800;-76
2023/01/19 11:04:28;;;;;;;29.70;21.30;;;;;;;3.09;85.91;99528.53;82538;1270;3025655;-75
2023/01/19 11:07:15;;;;;;;29.90;21.60;;;;;;;3.12;86.00;99530.39;82533;1268;3025244;-75
2023/01/19 11:09:49;;;;;;;29.60;20.30;;;;;;;3.12;85.89;99534.16;82534;1261;3026044;-74
2023/01/19 11:12:28;;;;;;;29.00;20.70;;;;;;;3.10;85.89;99533.34;82547;1259;3026795;-74
2023/01/19 11:15:14;;;;;;;30.30;21.20;;;;;;;3.11;85.62;99534.71;82596;1260;3026046;-73
2023/01/19 11:17:47;;;;;;;34.20;22.30;;;;;;;3.13;85.83;99534.84;82551;1254;3025527;-71
2023/01/19 11:20:27;;;;;;;34.20;23.10;;;;;;;3.16;85.80;99527.54;83830;1270;3013679;-72
2023/01/19 11:23:18;;;;;;;34.30;23.00;;;;;;;3.19;86.00;99522.82;82551;1260;3025522;-74
2023/01/19 11:25:53;;;;;;;35.20;22.80;;;;;;;3.22;86.08;99527.08;82546;1271;3025017;-74
2023/01/19 11:28:29;;;;;;;32.80;21.60;;;;;;;3.23;86.04;99527.55;83283;1262;3012077;-73
2023/01/19 11:31:15;;;;;;;32.40;21.90;;;;;;;3.23;85.78;99529.79;83338;1260;3011425;-74
2023/01/19 11:33:52;;;;;;;33.90;22.70;;;;;;;3.24;85.60;99523.40;82527;1264;3026078;-72
2023/01/19 11:36:27;;;;;;;35.90;23.80;;;;;;;3.22;85.69;99521.20;82523;1258;3025896;-74
2023/01/19 11:39:20;;;;;;;38.80;24.90;;;;;;;3.23;85.38;99513.07;82544;1269;3025086;-74
2023/01/19 11:41:55;;;;;;;36.30;23.40;;;;;;;3.21;85.68;99509.84;82554;1260;3026267;-75
2023/01/19 11:44:32;;;;;;;39.60;22.90;;;;;;;3.23;85.64;99504.46;82577;1254;3025552;-75
2023/01/19 11:47:06;;;;;;;35.30;24.10;;;;;;;3.25;85.69;99500.45;82543;1260;3026133;-76
2023/01/19 11:49:43;;;;;;;36.30;24.30;;;;;;;3.27;85.46;99501.61;83730;1262;3011457;-75
2023/01/19 11:52:23;;;;;;;37.50;24.80;;;;;;;3.31;85.73;99499.98;82517;1267;3026464;-75